Meriden, New Hampshire
Current Conditions -  °F | °C
As of 6:53 PM on Friday 21 Nov 2014 (Local Time) from KLEB Reporting Station
Clear Clear  
Wind Chill: 17°   Ceiling: Unl
Heat Index: 25°   Visibility: 10mi
Dew Point:   Wind: 7mph
Humidity: 39%   Direction: 320°NW
Pressure: 30.32"   Gusts: NA
Location:  43.54°N, 72.25°W
Report Text: KLEB 212353Z 32006KT 10SM CLR M04/M16 A3032 RMK AO2 SLP280 T10391161 10000 21078 51030
Loading
Personal Weather Stations






























Interactive Weather Map New forecast layout! Learn more

10-Day Weather Forecast

Advertisements
Track Severe Weather on mobile